Huvudsida
METAR-TAF:

METAR-TAF

Flygplatser :

Indira Gandhis internationella flygplats

New Delhi, Indien

latitud: 28-34N, longitud: 077-07E, höjd: 220 m

Aktuellt väderrapport

Denna rapport gjordes för 18 minuter sedan, klockan 11:30 UTC
Vind 7 kt från nordväst
Temperatur 27°C
Fuktighet 84%
Tryck 1008 hPa
Sikt: 4500 m
Spridda moln på en höjd av 3000 ft
Mulet på en höjd av 8000 ft
fuktdis

METAR: VIDP 251130Z 32007KT 4500 BR SCT030 OVC080 27/24 Q1008 NOSIG

Tid: 17:18 (11:48 UTC)

Väderprognos

Denna rapport gjordes för 3 timmar och 48 minuter sedan, klockan 08:00 UTC
Prognos gäller från 25 kl. 09 UTC till 25 kl. 18 UTC
Vind 8 kt från väst/nordväst
Sikt: 3500 m
Spridda moln på en höjd av 3000 ft
Mulet på en höjd av 8000 ft
fuktdis
Blir
från 25 kl. 14 UTC till 25 kl. 16 UTC
Sikt: 3000 m
torrdis

TAF: VIDP 250800Z 2509/2518 29008KT 3500 BR SCT030 OVC080 BECMG 2514/2516 25006 3000 HZ

Aktuella väderrapporter och prognoser från 4000 flygplatser (METAR- och TAF-rapporter).

De tillgängliga stationerna syns som gula och röda prickar på kartan.

För musen över prickarna för att se namnen på stationerna.

Klicka sedan för att få väderrapporter och prognoser.

För att ändra kartan: Klicka på de gröna knapparna med ett svart kors på för att zooma in; den gröna knappen med ett streck på för att zooma ut; eller på de gröna pilarna för angränsande kartor.


METAR-TAF: